sensor_id;sensor_type;location;lat;lon;timestamp;temperature;humidity
19864;DHT22;10094;48.820;9.226;2023-04-01T00:05:28;9.90;99.90
19864;DHT22;10094;48.820;9.226;2023-04-01T00:12:10;9.90;99.90
19864;DHT22;10094;48.820;9.226;2023-04-01T00:18:53;9.80;99.90
19864;DHT22;10094;48.820;9.226;2023-04-01T00:25:35;10.00;99.90
19864;DHT22;10094;48.820;9.226;2023-04-01T00:32:18;10.00;99.90
19864;DHT22;10094;48.820;9.226;2023-04-01T00:39:00;10.00;99.90
19864;DHT22;10094;48.820;9.226;2023-04-01T00:45:43;10.00;99.90
19864;DHT22;10094;48.820;9.226;2023-04-01T00:52:26;10.00;99.90
19864;DHT22;10094;48.820;9.226;2023-04-01T00:59:13;10.00;99.90
19864;DHT22;10094;48.820;9.226;2023-04-01T01:13:10;10.10;99.90
19864;DHT22;10094;48.820;9.226;2023-04-01T01:27:12;10.10;99.90
19864;DHT22;10094;48.820;9.226;2023-04-01T01:40:50;10.10;99.90
19864;DHT22;10094;48.820;9.226;2023-04-01T01:47:37;10.10;99.90
19864;DHT22;10094;48.820;9.226;2023-04-01T01:54:20;10.10;99.90
19864;DHT22;10094;48.820;9.226;2023-04-01T02:01:05;10.00;99.90
19864;DHT22;10094;48.820;9.226;2023-04-01T02:08:02;10.00;99.90
19864;DHT22;10094;48.820;9.226;2023-04-01T02:14:50;9.70;99.90
19864;DHT22;10094;48.820;9.226;2023-04-01T02:21:34;9.80;99.90
19864;DHT22;10094;48.820;9.226;2023-04-01T02:28:18;9.70;99.90
19864;DHT22;10094;48.820;9.226;2023-04-01T02:35:04;9.80;99.90
19864;DHT22;10094;48.820;9.226;2023-04-01T02:41:48;9.70;99.90
19864;DHT22;10094;48.820;9.226;2023-04-01T02:48:30;9.60;99.90
19864;DHT22;10094;48.820;9.226;2023-04-01T02:55:12;9.50;99.90
19864;DHT22;10094;48.820;9.226;2023-04-01T03:01:55;9.50;99.90
19864;DHT22;10094;48.820;9.226;2023-04-01T03:08:38;9.50;99.90
19864;DHT22;10094;48.820;9.226;2023-04-01T03:15:20;9.50;99.90
19864;DHT22;10094;48.820;9.226;2023-04-01T03:22:03;9.50;99.90
19864;DHT22;10094;48.820;9.226;2023-04-01T03:28:45;9.50;99.90
19864;DHT22;10094;48.820;9.226;2023-04-01T03:35:28;9.50;99.90
19864;DHT22;10094;48.820;9.226;2023-04-01T03:42:11;9.30;99.90
19864;DHT22;10094;48.820;9.226;2023-04-01T03:48:54;9.30;99.90
19864;DHT22;10094;48.820;9.226;2023-04-01T03:55:37;9.30;99.90
19864;DHT22;10094;48.820;9.226;2023-04-01T04:02:19;9.30;99.90
19864;DHT22;10094;48.820;9.226;2023-04-01T04:09:02;9.20;99.90
19864;DHT22;10094;48.820;9.226;2023-04-01T04:15:45;9.20;99.90
19864;DHT22;10094;48.820;9.226;2023-04-01T04:22:27;9.20;99.90
19864;DHT22;10094;48.820;9.226;2023-04-01T04:29:10;9.20;99.90
19864;DHT22;10094;48.820;9.226;2023-04-01T04:35:56;9.30;99.90
19864;DHT22;10094;48.820;9.226;2023-04-01T04:42:39;9.20;99.90
19864;DHT22;10094;48.820;9.226;2023-04-01T04:49:24;9.00;99.90
19864;DHT22;10094;48.820;9.226;2023-04-01T04:56:07;9.00;99.90
19864;DHT22;10094;48.820;9.226;2023-04-01T05:02:58;8.90;99.90
19864;DHT22;10094;48.820;9.226;2023-04-01T05:09:40;8.90;99.90
19864;DHT22;10094;48.820;9.226;2023-04-01T05:16:23;8.90;99.90
19864;DHT22;10094;48.820;9.226;2023-04-01T05:23:06;9.00;99.90
19864;DHT22;10094;48.820;9.226;2023-04-01T05:29:49;9.00;99.90
19864;DHT22;10094;48.820;9.226;2023-04-01T05:36:54;9.10;99.90
19864;DHT22;10094;48.820;9.226;2023-04-01T05:43:37;9.40;99.90
19864;DHT22;10094;48.820;9.226;2023-04-01T05:50:40;9.50;99.90
19864;DHT22;10094;48.820;9.226;2023-04-01T05:57:25;9.80;99.90
19864;DHT22;10094;48.820;9.226;2023-04-01T06:04:14;10.20;99.90
19864;DHT22;10094;48.820;9.226;2023-04-01T06:11:04;10.40;99.90
19864;DHT22;10094;48.820;9.226;2023-04-01T06:18:09;10.60;99.90
19864;DHT22;10094;48.820;9.226;2023-04-01T06:32:03;11.30;99.90
19864;DHT22;10094;48.820;9.226;2023-04-01T06:53:44;11.50;99.90
19864;DHT22;10094;48.820;9.226;2023-04-01T07:01:00;11.20;99.90
19864;DHT22;10094;48.820;9.226;2023-04-01T07:07:47;11.30;99.90
19864;DHT22;10094;48.820;9.226;2023-04-01T07:14:36;11.60;99.90
19864;DHT22;10094;48.820;9.226;2023-04-01T07:21:25;11.60;99.90
19864;DHT22;10094;48.820;9.226;2023-04-01T07:28:13;11.80;99.90
19864;DHT22;10094;48.820;9.226;2023-04-01T07:35:22;11.70;99.90
19864;DHT22;10094;48.820;9.226;2023-04-01T07:42:18;11.60;99.90
19864;DHT22;10094;48.820;9.226;2023-04-01T07:49:31;11.30;99.90
19864;DHT22;10094;48.820;9.226;2023-04-01T07:56:30;11.40;99.90
19864;DHT22;10094;48.820;9.226;2023-04-01T08:03:35;11.40;99.90
19864;DHT22;10094;48.820;9.226;2023-04-01T08:17:41;11.60;99.90
19864;DHT22;10094;48.820;9.226;2023-04-01T08:24:41;11.80;99.90
19864;DHT22;10094;48.820;9.226;2023-04-01T08:31:40;11.90;99.90
19864;DHT22;10094;48.820;9.226;2023-04-01T08:45:47;12.00;99.90
19864;DHT22;10094;48.820;9.226;2023-04-01T08:52:37;12.00;99.90
19864;DHT22;10094;48.820;9.226;2023-04-01T08:59:54;11.60;99.90
19864;DHT22;10094;48.820;9.226;2023-04-01T09:07:29;11.40;99.90
19864;DHT22;10094;48.820;9.226;2023-04-01T09:14:47;11.30;99.90
19864;DHT22;10094;48.820;9.226;2023-04-01T09:35:48;11.90;99.90
19864;DHT22;10094;48.820;9.226;2023-04-01T09:42:42;12.20;99.90
19864;DHT22;10094;48.820;9.226;2023-04-01T10:04:00;12.30;99.90
19864;DHT22;10094;48.820;9.226;2023-04-01T10:25:11;12.40;99.90
19864;DHT22;10094;48.820;9.226;2023-04-01T10:46:32;12.80;99.90
19864;DHT22;10094;48.820;9.226;2023-04-01T10:53:38;12.60;99.90
19864;DHT22;10094;48.820;9.226;2023-04-01T11:57:57;14.20;99.90
19864;DHT22;10094;48.820;9.226;2023-04-01T12:05:15;14.10;99.90
19864;DHT22;10094;48.820;9.226;2023-04-01T12:12:18;13.80;99.90
19864;DHT22;10094;48.820;9.226;2023-04-01T12:55:17;13.70;99.90
19864;DHT22;10094;48.820;9.226;2023-04-01T13:23:27;13.60;99.90
19864;DHT22;10094;48.820;9.226;2023-04-01T13:30:26;13.70;99.90
19864;DHT22;10094;48.820;9.226;2023-04-01T14:39:27;13.50;99.90
19864;DHT22;10094;48.820;9.226;2023-04-01T14:53:29;13.00;99.90
19864;DHT22;10094;48.820;9.226;2023-04-01T15:00:15;12.90;99.90
19864;DHT22;10094;48.820;9.226;2023-04-01T15:07:21;13.00;99.90
19864;DHT22;10094;48.820;9.226;2023-04-01T15:21:44;13.20;99.90
19864;DHT22;10094;48.820;9.226;2023-04-01T15:28:39;13.30;99.90
19864;DHT22;10094;48.820;9.226;2023-04-01T15:35:39;13.10;99.90
19864;DHT22;10094;48.820;9.226;2023-04-01T15:56:23;13.20;99.90
19864;DHT22;10094;48.820;9.226;2023-04-01T16:10:44;13.00;99.90
19864;DHT22;10094;48.820;9.226;2023-04-01T16:17:56;12.90;99.90
19864;DHT22;10094;48.820;9.226;2023-04-01T16:46:30;12.50;99.90
19864;DHT22;10094;48.820;9.226;2023-04-01T16:53:17;12.50;99.90
19864;DHT22;10094;48.820;9.226;2023-04-01T17:15:17;12.50;99.90
19864;DHT22;10094;48.820;9.226;2023-04-01T17:28:46;12.40;99.90
19864;DHT22;10094;48.820;9.226;2023-04-01T17:36:24;12.30;99.90
19864;DHT22;10094;48.820;9.226;2023-04-01T17:43:16;12.20;99.90
19864;DHT22;10094;48.820;9.226;2023-04-01T17:50:24;12.30;99.90
19864;DHT22;10094;48.820;9.226;2023-04-01T18:11:53;12.00;99.90
19864;DHT22;10094;48.820;9.226;2023-04-01T18:18:58;11.90;99.90
19864;DHT22;10094;48.820;9.226;2023-04-01T18:25:47;11.70;99.90
19864;DHT22;10094;48.820;9.226;2023-04-01T18:32:50;11.50;99.90
19864;DHT22;10094;48.820;9.226;2023-04-01T18:39:50;11.40;99.90
19864;DHT22;10094;48.820;9.226;2023-04-01T18:46:52;11.50;99.90
19864;DHT22;10094;48.820;9.226;2023-04-01T18:53:57;11.30;99.90
19864;DHT22;10094;48.820;9.226;2023-04-01T19:00:46;11.10;99.90
19864;DHT22;10094;48.820;9.226;2023-04-01T19:07:39;10.90;99.90
19864;DHT22;10094;48.820;9.226;2023-04-01T19:14:41;10.80;99.90
19864;DHT22;10094;48.820;9.226;2023-04-01T19:21:44;10.60;99.90
19864;DHT22;10094;48.820;9.226;2023-04-01T19:35:47;10.30;99.90
19864;DHT22;10094;48.820;9.226;2023-04-01T19:42:59;10.10;99.90
19864;DHT22;10094;48.820;9.226;2023-04-01T19:49:57;10.00;99.90
19864;DHT22;10094;48.820;9.226;2023-04-01T19:57:05;9.90;99.90
19864;DHT22;10094;48.820;9.226;2023-04-01T20:03:53;9.90;99.90
19864;DHT22;10094;48.820;9.226;2023-04-01T20:25:31;10.10;99.90
19864;DHT22;10094;48.820;9.226;2023-04-01T20:32:29;10.20;99.90
19864;DHT22;10094;48.820;9.226;2023-04-01T21:01:03;10.40;99.90
19864;DHT22;10094;48.820;9.226;2023-04-01T21:07:58;10.40;99.90
19864;DHT22;10094;48.820;9.226;2023-04-01T21:28:29;10.30;99.90
19864;DHT22;10094;48.820;9.226;2023-04-01T22:10:41;10.30;99.90
19864;DHT22;10094;48.820;9.226;2023-04-01T22:17:30;10.40;99.90
19864;DHT22;10094;48.820;9.226;2023-04-01T22:31:00;10.30;99.90
19864;DHT22;10094;48.820;9.226;2023-04-01T22:38:08;10.30;99.90
19864;DHT22;10094;48.820;9.226;2023-04-01T23:06:04;10.20;99.90
19864;DHT22;10094;48.820;9.226;2023-04-01T23:12:47;10.30;99.90
19864;DHT22;10094;48.820;9.226;2023-04-01T23:19:53;10.30;99.90
19864;DHT22;10094;48.820;9.226;2023-04-01T23:26:46;10.30;99.90
19864;DHT22;10094;48.820;9.226;2023-04-01T23:33:32;10.20;99.90
19864;DHT22;10094;48.820;9.226;2023-04-01T23:40:14;10.10;99.90
19864;DHT22;10094;48.820;9.226;2023-04-01T23:46:58;10.20;99.90
19864;DHT22;10094;48.820;9.226;2023-04-01T23:53:44;10.10;99.90
